createdAt,value
2022-10-23T00:01:50.847Z,95887.25
2022-10-23T00:04:22.601Z,95881.91
2022-10-23T00:06:50.009Z,95878.38
2022-10-23T00:09:20.411Z,95877.31
2022-10-23T00:11:48.189Z,95864.88
2022-10-23T00:14:15.830Z,95867.13
2022-10-23T00:16:42.399Z,95864.03
2022-10-23T00:19:09.366Z,95848.44
2022-10-23T00:21:36.705Z,95847.56
2022-10-23T00:24:03.492Z,95859.72
2022-10-23T00:26:30.119Z,95864.78
2022-10-23T00:28:57.091Z,95857.09
2022-10-23T00:31:24.793Z,95860.63
2022-10-23T00:33:51.744Z,95855.56
2022-10-23T00:36:20.426Z,95854.84
2022-10-23T00:38:47.531Z,95853.63
2022-10-23T00:41:19.975Z,95848.69
2022-10-23T00:44:07.975Z,95859.41
2022-10-23T00:46:36.747Z,95856.78
2022-10-23T00:49:05.266Z,95858.69
2022-10-23T00:51:44.928Z,95846.75
2022-10-23T00:54:29.163Z,95848.69
2022-10-23T00:57:01.663Z,95850.75
2022-10-23T00:59:29.341Z,95843.69
2022-10-23T01:01:56.015Z,95846.94
2022-10-23T01:04:24.049Z,95846.22
2022-10-23T01:07:09.518Z,95838.44
2022-10-23T01:09:55.739Z,95832.72
2022-10-23T01:12:31.310Z,95832.03
2022-10-23T01:15:21.705Z,95822.25
2022-10-23T01:18:02.226Z,95827.34
2022-10-23T01:20:40.864Z,95818.16
2022-10-23T01:23:37.817Z,95829.63
2022-10-23T01:26:25.976Z,95815.00
2022-10-23T01:29:13.520Z,95810.03
2022-10-23T01:31:44.930Z,95816.44
2022-10-23T01:34:20.954Z,95812.44
2022-10-23T01:36:49.250Z,95814.06
2022-10-23T01:39:21.939Z,95811.75
2022-10-23T01:42:00.046Z,95813.69
2022-10-23T01:44:36.835Z,95816.75
2022-10-23T01:47:08.515Z,95806.97
2022-10-23T01:49:48.594Z,95809.59
2022-10-23T01:52:17.517Z,95809.91
2022-10-23T01:54:47.558Z,95800.97
2022-10-23T01:57:18.133Z,95798.25
2022-10-23T01:59:49.552Z,95797.75
2022-10-23T02:02:18.944Z,95786.63
2022-10-23T02:05:07.782Z,95793.53
2022-10-23T02:07:35.130Z,95784.22
2022-10-23T02:10:04.972Z,95790.06
2022-10-23T02:12:54.918Z,95792.00
2022-10-23T02:15:30.875Z,95794.25
2022-10-23T02:18:00.418Z,95789.88
2022-10-23T02:20:41.151Z,95783.91
2022-10-23T02:23:17.237Z,95778.75
2022-10-23T02:26:13.751Z,95773.66
2022-10-23T02:28:45.745Z,95764.38
2022-10-23T02:31:16.895Z,95760.25
2022-10-23T02:33:46.710Z,95763.09
2022-10-23T02:36:14.092Z,95754.63
2022-10-23T02:38:43.493Z,95752.44
2022-10-23T02:41:37.833Z,95759.25
2022-10-23T02:44:28.415Z,95741.09
2022-10-23T02:47:18.221Z,95741.03
2022-10-23T02:50:09.497Z,95737.00
2022-10-23T02:53:03.122Z,95735.16
2022-10-23T02:56:01.859Z,95733.00
2022-10-23T02:58:42.830Z,95735.06
2022-10-23T03:01:22.871Z,95736.25
2022-10-23T03:03:56.581Z,95732.38
2022-10-23T03:06:24.347Z,95737.41
2022-10-23T03:09:07.585Z,95726.69
2022-10-23T03:11:34.322Z,95732.47
2022-10-23T03:14:00.903Z,95725.38
2022-10-23T03:16:27.880Z,95728.63
2022-10-23T03:18:55.132Z,95728.31
2022-10-23T03:21:21.990Z,95731.75
2022-10-23T03:23:52.107Z,95726.94
2022-10-23T03:26:24.889Z,95731.00
2022-10-23T03:28:51.530Z,95727.84
2022-10-23T03:31:20.349Z,95724.31
2022-10-23T03:33:49.279Z,95721.72
2022-10-23T03:36:15.856Z,95722.47
2022-10-23T03:38:43.075Z,95720.13
2022-10-23T03:41:10.550Z,95716.25
2022-10-23T03:43:37.178Z,95709.03
2022-10-23T03:46:08.978Z,95713.94
2022-10-23T03:48:38.172Z,95710.91
2022-10-23T03:51:05.988Z,95707.59
2022-10-23T03:53:32.592Z,95705.78
2022-10-23T03:56:01.927Z,95714.56
2022-10-23T03:58:28.626Z,95717.50
2022-10-23T04:00:55.837Z,95719.16
2022-10-23T04:03:22.957Z,95710.13
2022-10-23T04:05:52.245Z,95708.66
2022-10-23T04:08:21.650Z,95715.69
2022-10-23T04:10:51.239Z,95715.59
2022-10-23T04:13:21.167Z,95718.72
2022-10-23T04:15:49.598Z,95715.88
2022-10-23T04:18:16.853Z,95723.44
2022-10-23T04:20:43.495Z,95723.88
2022-10-23T04:23:10.847Z,95720.13
2022-10-23T04:25:40.352Z,95718.81
2022-10-23T04:28:08.034Z,95722.00
2022-10-23T04:30:38.268Z,95720.94
2022-10-23T04:33:05.636Z,95714.28
2022-10-23T04:35:32.311Z,95707.28
2022-10-23T04:37:59.575Z,95705.75
2022-10-23T04:40:26.105Z,95707.22
2022-10-23T04:42:54.410Z,95700.84
2022-10-23T04:45:21.390Z,95694.41
2022-10-23T04:47:47.988Z,95706.31
2022-10-23T04:50:15.097Z,95694.81
2022-10-23T04:53:10.997Z,95702.03
2022-10-23T04:55:57.770Z,95703.16
2022-10-23T04:58:48.422Z,95697.09
2022-10-23T05:01:15.153Z,95704.16
2022-10-23T05:03:42.124Z,95700.22
2022-10-23T05:06:09.046Z,95701.19
2022-10-23T05:08:50.241Z,95696.34
2022-10-23T05:11:39.682Z,95694.47
2022-10-23T05:14:08.397Z,95700.19
2022-10-23T05:16:44.381Z,95692.09
2022-10-23T05:19:20.693Z,95702.44
2022-10-23T05:21:55.685Z,95696.69
2022-10-23T05:24:26.079Z,95694.59
2022-10-23T05:26:57.719Z,95697.31
2022-10-23T05:29:24.235Z,95699.88
2022-10-23T05:31:56.678Z,95699.81
2022-10-23T05:34:26.526Z,95705.66
2022-10-23T05:36:53.452Z,95702.09
2022-10-23T05:39:23.747Z,95696.00
2022-10-23T05:41:52.917Z,95703.38
2022-10-23T05:44:23.034Z,95698.22
2022-10-23T05:47:17.276Z,95698.41
2022-10-23T05:49:59.277Z,95687.97
2022-10-23T05:52:49.323Z,95680.38
2022-10-23T05:55:48.063Z,95682.06
2022-10-23T05:58:38.281Z,95677.00
2022-10-23T06:01:14.827Z,95672.19
2022-10-23T06:04:07.307Z,95680.63
2022-10-23T06:07:03.897Z,95678.56
2022-10-23T06:09:31.164Z,95672.16
2022-10-23T06:11:58.382Z,95671.03
2022-10-23T06:14:24.911Z,95668.44
2022-10-23T06:16:52.268Z,95669.56
2022-10-23T06:19:19.451Z,95666.94
2022-10-23T06:21:49.146Z,95666.41
2022-10-23T06:24:16.466Z,95661.28
2022-10-23T06:26:54.616Z,95655.63
2022-10-23T06:29:31.965Z,95668.66
2022-10-23T06:31:58.602Z,95663.53
2022-10-23T06:34:25.208Z,95669.84
2022-10-23T06:36:51.803Z,95670.97
2022-10-23T06:39:36.989Z,95673.00
2022-10-23T06:42:15.031Z,95670.19
2022-10-23T06:45:08.238Z,95676.22
2022-10-23T06:47:55.007Z,95683.63
2022-10-23T06:50:52.707Z,95682.00
2022-10-23T06:53:24.922Z,95681.91
2022-10-23T06:56:00.681Z,95688.25
2022-10-23T06:58:27.745Z,95692.03
2022-10-23T07:01:02.796Z,95687.00
2022-10-23T07:03:29.435Z,95694.53
2022-10-23T07:05:56.053Z,95680.25
2022-10-23T07:08:23.798Z,95684.94
2022-10-23T07:10:52.597Z,95688.28
2022-10-23T07:13:19.711Z,95679.09
2022-10-23T07:16:21.148Z,95679.16
2022-10-23T07:18:50.312Z,95680.41
2022-10-23T07:21:31.223Z,95684.44
2022-10-23T07:24:18.030Z,95692.91
2022-10-23T07:26:45.006Z,95673.78
2022-10-23T07:29:13.430Z,95684.38
2022-10-23T07:31:41.455Z,95681.63
2022-10-23T07:34:32.032Z,95671.94
2022-10-23T07:37:19.203Z,95672.41
2022-10-23T07:39:45.793Z,95670.34
2022-10-23T07:42:12.423Z,95671.19
2022-10-23T07:44:40.979Z,95674.34
2022-10-23T07:47:07.595Z,95684.94
2022-10-23T07:49:34.238Z,95668.31
2022-10-23T07:52:01.015Z,95677.44
2022-10-23T07:54:37.407Z,95669.66
2022-10-23T07:57:16.464Z,95654.81
2022-10-23T07:59:47.139Z,95650.19
2022-10-23T08:02:18.383Z,95658.34
2022-10-23T08:04:49.128Z,95654.22
2022-10-23T08:07:26.719Z,95636.16
2022-10-23T08:09:56.203Z,95638.69
2022-10-23T08:12:22.780Z,95643.88
2022-10-23T08:14:49.348Z,95635.34
2022-10-23T08:17:16.277Z,95648.34
2022-10-23T08:20:00.804Z,95659.44
2022-10-23T08:22:35.075Z,95645.84
2022-10-23T08:25:02.459Z,95642.72
2022-10-23T08:27:29.976Z,95642.41
2022-10-23T08:29:56.540Z,95637.34
2022-10-23T08:32:23.530Z,95640.09
2022-10-23T08:34:56.081Z,95642.56
2022-10-23T08:37:24.278Z,95646.47
2022-10-23T08:39:53.221Z,95644.25
2022-10-23T08:42:27.535Z,95634.47
2022-10-23T08:45:05.970Z,95643.94
2022-10-23T08:47:44.581Z,95641.16
2022-10-23T08:50:41.007Z,95637.88
2022-10-23T08:53:52.460Z,95634.13
2022-10-23T08:56:28.783Z,95642.94
2022-10-23T08:59:19.838Z,95637.19
2022-10-23T09:02:32.847Z,95638.34
2022-10-23T09:04:59.786Z,95645.78
2022-10-23T09:08:00.259Z,95639.66
2022-10-23T09:10:54.646Z,95640.59
2022-10-23T09:13:44.071Z,95636.41
2022-10-23T09:16:23.372Z,95623.50
2022-10-23T09:18:50.217Z,95610.72
2022-10-23T09:21:17.173Z,95615.63
2022-10-23T09:23:44.050Z,95608.13
2022-10-23T09:26:17.048Z,95609.66
2022-10-23T09:28:47.837Z,95612.59
2022-10-23T09:31:15.148Z,95609.50
2022-10-23T09:33:41.704Z,95605.09
2022-10-23T09:36:12.449Z,95603.28
2022-10-23T09:38:53.038Z,95599.66
2022-10-23T09:41:35.544Z,95595.97
2022-10-23T09:44:07.916Z,95590.91
2022-10-23T09:46:53.474Z,95596.72
2022-10-23T09:49:28.879Z,95606.66
2022-10-23T09:52:05.852Z,95599.91
2022-10-23T09:54:36.955Z,95611.16
2022-10-23T09:57:23.437Z,95604.84
2022-10-23T10:00:01.968Z,95612.16
2022-10-23T10:02:38.263Z,95609.41
2022-10-23T10:05:34.975Z,95605.66
2022-10-23T10:08:10.705Z,95613.59
2022-10-23T10:10:48.109Z,95620.34
2022-10-23T10:13:37.180Z,95616.25
2022-10-23T10:16:16.680Z,95614.47
2022-10-23T10:18:43.138Z,95611.53
2022-10-23T10:21:15.718Z,95615.50
2022-10-23T10:24:08.009Z,95606.38
2022-10-23T10:30:53.079Z,95604.91
2022-10-23T10:33:35.622Z,95601.66
2022-10-23T10:36:15.161Z,95588.59
2022-10-23T10:38:47.798Z,95588.41
2022-10-23T10:41:20.421Z,95589.97
2022-10-23T10:44:05.997Z,95598.09
2022-10-23T10:46:56.265Z,95602.66
2022-10-23T10:49:38.145Z,95586.09
2022-10-23T10:52:40.155Z,95578.31
2022-10-23T10:55:20.712Z,95582.31
2022-10-23T10:57:59.184Z,95575.16
2022-10-23T11:00:28.497Z,95570.59
2022-10-23T11:03:02.743Z,95563.69
2022-10-23T11:05:37.245Z,95573.34
2022-10-23T11:08:17.992Z,95568.81
2022-10-23T11:10:48.151Z,95572.16
2022-10-23T11:13:30.445Z,95570.47
2022-10-23T11:16:02.712Z,95563.88
2022-10-23T11:18:32.401Z,95559.41
2022-10-23T11:21:17.483Z,95550.97
2022-10-23T11:24:17.844Z,95545.00
2022-10-23T11:26:47.347Z,95541.19
2022-10-23T11:29:41.898Z,95530.41
2022-10-23T11:32:20.662Z,95526.81
2022-10-23T11:34:55.961Z,95516.25
2022-10-23T11:37:22.839Z,95518.16
2022-10-23T11:40:15.365Z,95514.41
2022-10-23T11:42:42.295Z,95517.41
2022-10-23T11:45:29.031Z,95519.53
2022-10-23T11:48:04.688Z,95510.22
2022-10-23T11:50:51.207Z,95514.06
2022-10-23T11:53:47.068Z,95510.22
2022-10-23T11:56:14.637Z,95512.53
2022-10-23T11:58:49.749Z,95511.63
2022-10-23T12:01:16.402Z,95515.38
2022-10-23T12:03:52.699Z,95504.66
2022-10-23T12:06:24.851Z,95510.19
2022-10-23T12:08:55.337Z,95499.69
2022-10-23T12:11:42.271Z,95502.84
2022-10-23T12:14:30.630Z,95508.84
2022-10-23T12:16:57.396Z,95498.94
2022-10-23T12:19:26.560Z,95500.25
2022-10-23T12:21:58.325Z,95495.81
2022-10-23T12:24:39.871Z,95491.94
2022-10-23T12:27:30.787Z,95488.16
2022-10-23T12:30:18.709Z,95489.78
2022-10-23T12:33:14.332Z,95468.00
2022-10-23T12:36:11.804Z,95460.97
2022-10-23T12:38:49.800Z,95457.47
2022-10-23T12:41:31.830Z,95446.56
2022-10-23T12:44:01.401Z,95440.88
2022-10-23T12:46:32.846Z,95449.50
2022-10-23T12:49:01.258Z,95429.88
2022-10-23T12:51:31.613Z,95442.84
2022-10-23T12:53:58.441Z,95445.19
2022-10-23T12:56:28.518Z,95435.69
2022-10-23T12:59:01.360Z,95424.69
2022-10-23T13:01:32.997Z,95425.84
2022-10-23T13:04:13.447Z,95419.53
2022-10-23T13:06:40.365Z,95420.41
2022-10-23T13:09:22.172Z,95418.63
2022-10-23T13:12:18.544Z,95426.72
2022-10-23T13:15:12.465Z,95425.50
2022-10-23T13:17:42.769Z,95421.38
2022-10-23T13:20:18.614Z,95416.38
2022-10-23T13:22:48.022Z,95418.63
2022-10-23T13:25:29.348Z,95412.69
2022-10-23T13:28:23.609Z,95403.56
2022-10-23T13:31:04.247Z,95404.72
2022-10-23T13:33:48.639Z,95408.06
2022-10-23T13:36:15.124Z,95406.50
2022-10-23T13:38:47.522Z,95409.31
2022-10-23T13:41:17.659Z,95412.53
2022-10-23T13:43:45.467Z,95413.75
2022-10-23T13:46:20.605Z,95402.47
2022-10-23T13:48:48.066Z,95409.06
2022-10-23T13:51:15.834Z,95418.81
2022-10-23T13:53:42.407Z,95401.00
2022-10-23T13:56:12.322Z,95402.44
2022-10-23T13:58:39.114Z,95397.47
2022-10-23T14:01:06.969Z,95398.47
2022-10-23T14:03:33.600Z,95393.91
2022-10-23T14:06:01.452Z,95396.34
2022-10-23T14:08:27.984Z,95398.16
2022-10-23T14:10:54.620Z,95396.72
2022-10-23T14:13:21.181Z,95393.25
2022-10-23T14:15:53.976Z,95391.34
2022-10-23T14:18:20.894Z,95407.25
2022-10-23T14:20:47.463Z,95401.66
2022-10-23T14:23:14.036Z,95403.38
2022-10-23T14:25:40.570Z,95406.75
2022-10-23T14:28:07.123Z,95411.16
2022-10-23T14:30:37.109Z,95392.91
2022-10-23T14:33:04.453Z,95399.16
2022-10-23T14:35:31.003Z,95396.78
2022-10-23T14:37:58.476Z,95388.63
2022-10-23T14:40:25.516Z,95395.66
2022-10-23T14:42:52.102Z,95391.63
2022-10-23T14:45:18.668Z,95390.41
2022-10-23T14:47:46.392Z,95384.03
2022-10-23T14:50:13.772Z,95391.78
2022-10-23T14:52:40.396Z,95384.69
2022-10-23T14:55:07.318Z,95396.34
2022-10-23T14:57:34.078Z,95389.63
2022-10-23T15:00:00.601Z,95391.00
2022-10-23T15:02:27.119Z,95397.63
2022-10-23T15:04:53.646Z,95386.69
2022-10-23T15:07:20.165Z,95382.75
2022-10-23T15:09:46.753Z,95373.75
2022-10-23T15:12:13.377Z,95366.47
2022-10-23T15:14:39.973Z,95359.78
2022-10-23T15:17:06.764Z,95345.72
2022-10-23T15:19:33.391Z,95341.00
2022-10-23T15:22:00.225Z,95347.63
2022-10-23T15:24:26.903Z,95338.63
2022-10-23T15:26:53.528Z,95329.63
2022-10-23T15:29:20.481Z,95320.16
2022-10-23T15:31:56.919Z,95324.91
2022-10-23T15:34:26.397Z,95328.59
2022-10-23T15:36:55.291Z,95331.91
2022-10-23T15:39:25.172Z,95318.47
2022-10-23T15:41:54.533Z,95326.03
2022-10-23T15:44:23.833Z,95321.53
2022-10-23T15:46:51.565Z,95322.25
2022-10-23T15:49:18.695Z,95323.91
2022-10-23T15:51:46.572Z,95334.34
2022-10-23T15:54:19.171Z,95347.88
2022-10-23T15:56:48.019Z,95346.25
2022-10-23T15:59:15.575Z,95346.91
2022-10-23T16:01:42.447Z,95355.38
2022-10-23T16:04:10.221Z,95355.53
2022-10-23T16:06:37.396Z,95352.16
2022-10-23T16:09:04.002Z,95345.44
2022-10-23T16:11:34.691Z,95348.22
2022-10-23T16:14:03.112Z,95339.78
2022-10-23T16:16:31.433Z,95336.28
2022-10-23T16:19:03.460Z,95332.34
2022-10-23T16:21:32.304Z,95337.81
2022-10-23T16:24:00.765Z,95348.66
2022-10-23T16:26:29.265Z,95332.06
2022-10-23T16:28:58.210Z,95328.22
2022-10-23T16:31:25.961Z,95317.34
2022-10-23T16:33:53.499Z,95322.47
2022-10-23T16:36:21.984Z,95327.66
2022-10-23T16:39:09.866Z,95325.88
2022-10-23T16:41:55.123Z,95322.13
2022-10-23T16:44:25.930Z,95337.44
2022-10-23T16:47:00.671Z,95328.56
2022-10-23T16:49:29.703Z,95315.03
2022-10-23T16:51:56.281Z,95307.63
2022-10-23T16:54:22.881Z,95307.28
2022-10-23T16:56:49.540Z,95303.78
2022-10-23T16:59:16.112Z,95307.47
2022-10-23T17:01:43.213Z,95293.44
2022-10-23T17:04:09.885Z,95301.19
2022-10-23T17:06:37.315Z,95287.47
2022-10-23T17:09:05.051Z,95290.03
2022-10-23T17:11:35.087Z,95298.41
2022-10-23T17:14:08.062Z,95307.22
2022-10-23T17:16:38.534Z,95313.06
2022-10-23T17:19:15.955Z,95317.75
2022-10-23T17:21:47.964Z,95337.13
2022-10-23T17:24:14.541Z,95361.28
2022-10-23T17:26:41.750Z,95373.38
2022-10-23T17:29:10.304Z,95372.94
2022-10-23T17:31:39.514Z,95387.31
2022-10-23T17:34:10.303Z,95388.13
2022-10-23T17:36:39.610Z,95402.78
2022-10-23T17:39:08.311Z,95412.84
2022-10-23T17:41:35.603Z,95419.50
2022-10-23T17:44:02.936Z,95442.00
2022-10-23T17:46:30.081Z,95431.91
2022-10-23T17:48:58.019Z,95423.50
2022-10-23T17:51:27.188Z,95417.97
2022-10-23T17:53:55.899Z,95433.47
2022-10-23T17:56:24.893Z,95420.63
2022-10-23T17:58:58.883Z,95442.50
2022-10-23T18:01:27.291Z,95445.31
2022-10-23T18:03:55.859Z,95428.72
2022-10-23T18:06:28.867Z,95416.72
2022-10-23T18:08:56.763Z,95453.94
2022-10-23T18:11:26.011Z,95448.41
2022-10-23T18:13:53.665Z,95442.78
2022-10-23T18:16:20.874Z,95452.34
2022-10-23T18:18:48.608Z,95445.72
2022-10-23T18:21:16.821Z,95463.69
2022-10-23T18:23:43.501Z,95466.28
2022-10-23T18:26:18.726Z,95475.50
2022-10-23T18:28:47.324Z,95475.56
2022-10-23T18:31:15.873Z,95488.84
2022-10-23T18:33:43.317Z,95488.75
2022-10-23T18:36:19.592Z,95490.03
2022-10-23T18:38:46.551Z,95498.00
2022-10-23T18:41:13.188Z,95492.44
2022-10-23T18:43:44.496Z,95503.13
2022-10-23T18:46:13.331Z,95506.63
2022-10-23T18:48:40.763Z,95492.78
2022-10-23T18:51:18.982Z,95500.00
2022-10-23T18:53:48.660Z,95499.53
2022-10-23T18:56:21.735Z,95504.25
2022-10-23T18:58:58.447Z,95500.34
2022-10-23T19:01:27.420Z,95506.63
2022-10-23T19:06:23.564Z,95515.75
2022-10-23T19:08:50.644Z,95524.47
2022-10-23T19:11:19.782Z,95533.03
2022-10-23T19:22:30.098Z,95523.19
2022-10-23T19:25:10.222Z,95533.25
2022-10-23T19:27:38.620Z,95532.44
2022-10-23T19:30:12.665Z,95517.56
2022-10-23T19:32:43.598Z,95527.38
2022-10-23T19:35:10.800Z,95536.66
2022-10-23T19:37:37.784Z,95534.84
2022-10-23T19:40:06.669Z,95515.47
2022-10-23T19:42:34.206Z,95526.22
2022-10-23T19:45:01.285Z,95526.53
2022-10-23T19:47:27.866Z,95533.69
2022-10-23T19:49:54.425Z,95531.28
2022-10-23T19:52:22.152Z,95534.44
2022-10-23T19:54:49.435Z,95518.94
2022-10-23T19:57:19.225Z,95534.00
2022-10-23T19:59:52.597Z,95544.75
2022-10-23T20:02:20.213Z,95539.50
2022-10-23T20:04:47.098Z,95542.03
2022-10-23T20:07:13.925Z,95532.53
2022-10-23T20:09:40.590Z,95529.59
2022-10-23T20:12:07.367Z,95551.00
2022-10-23T20:14:34.250Z,95527.69
2022-10-23T20:17:01.580Z,95531.50
2022-10-23T20:19:28.821Z,95522.22
2022-10-23T20:21:55.432Z,95543.94
2022-10-23T20:24:22.223Z,95534.88
2022-10-23T20:26:51.531Z,95549.09
2022-10-23T20:29:18.753Z,95540.03
2022-10-23T20:31:45.484Z,95552.34
2022-10-23T20:34:12.452Z,95543.81
2022-10-23T20:36:45.645Z,95540.53
2022-10-23T20:39:21.813Z,95554.69
2022-10-23T20:41:48.473Z,95565.63
2022-10-23T20:46:43.788Z,95558.88
2022-10-23T20:49:11.919Z,95555.53
2022-10-23T20:51:38.453Z,95555.94
2022-10-23T20:54:06.101Z,95573.34
2022-10-23T20:56:35.128Z,95558.47
2022-10-23T20:59:11.664Z,95565.44
2022-10-23T21:01:43.630Z,95544.88
2022-10-23T21:04:12.987Z,95569.97
2022-10-23T21:06:51.939Z,95550.44
2022-10-23T21:09:29.881Z,95565.31
2022-10-23T21:11:56.477Z,95565.56
2022-10-23T21:14:23.041Z,95572.81
2022-10-23T21:16:49.823Z,95569.88
2022-10-23T21:19:16.533Z,95555.22
2022-10-23T21:21:43.986Z,95571.53
2022-10-23T21:24:14.890Z,95586.53
2022-10-23T21:26:41.650Z,95583.25
2022-10-23T21:29:21.115Z,95552.25
2022-10-23T21:31:59.367Z,95572.59
2022-10-23T21:34:26.628Z,95557.81
2022-10-23T21:37:12.342Z,95566.91
2022-10-23T21:39:40.359Z,95559.31
2022-10-23T21:42:06.949Z,95555.28
2022-10-23T21:44:33.573Z,95535.50
2022-10-23T21:47:00.109Z,95534.22
2022-10-23T21:49:26.698Z,95543.94
2022-10-23T21:51:54.847Z,95540.13
2022-10-23T21:54:21.764Z,95538.78
2022-10-23T21:56:50.752Z,95541.28
2022-10-23T21:59:21.901Z,95542.25
2022-10-23T22:01:48.801Z,95545.81
2022-10-23T22:04:17.452Z,95535.28
2022-10-23T22:06:46.181Z,95535.38
2022-10-23T22:09:15.329Z,95537.72
2022-10-23T22:11:42.379Z,95534.44
2022-10-23T22:14:08.936Z,95541.09
2022-10-23T22:16:35.537Z,95531.69
2022-10-23T22:19:02.156Z,95527.47
2022-10-23T22:21:29.997Z,95530.94
2022-10-23T22:23:58.500Z,95526.22
2022-10-23T22:26:32.423Z,95525.03
2022-10-23T22:29:01.547Z,95521.25
2022-10-23T22:31:31.529Z,95520.09
2022-10-23T22:33:58.669Z,95518.84
2022-10-23T22:36:26.023Z,95521.47
2022-10-23T22:38:53.187Z,95519.06
2022-10-23T22:41:20.152Z,95530.19
2022-10-23T22:43:46.794Z,95530.66
2022-10-23T22:46:18.662Z,95529.47
2022-10-23T22:48:45.948Z,95525.28
2022-10-23T22:51:14.447Z,95519.47
2022-10-23T22:53:41.488Z,95528.53
2022-10-23T22:56:10.868Z,95512.47
2022-10-23T22:58:37.538Z,95504.91
2022-10-23T23:01:11.846Z,95518.94
2022-10-23T23:03:38.953Z,95515.25
2022-10-23T23:06:07.086Z,95523.38
2022-10-23T23:08:35.022Z,95512.81
2022-10-23T23:11:02.149Z,95518.00
2022-10-23T23:13:28.772Z,95516.59
2022-10-23T23:15:56.044Z,95524.50
2022-10-23T23:18:22.712Z,95524.44
2022-10-23T23:20:49.670Z,95525.81
2022-10-23T23:23:16.802Z,95526.94
2022-10-23T23:25:45.529Z,95531.78
2022-10-23T23:28:13.358Z,95522.00
2022-10-23T23:30:41.161Z,95513.13
2022-10-23T23:33:08.432Z,95521.38
2022-10-23T23:35:38.688Z,95525.69
2022-10-23T23:38:05.249Z,95523.25
2022-10-23T23:40:31.795Z,95519.28
2022-10-23T23:42:58.353Z,95518.41
2022-10-23T23:45:24.959Z,95524.72
2022-10-23T23:47:51.598Z,95526.44
2022-10-23T23:50:18.283Z,95523.25
2022-10-23T23:52:44.847Z,95525.78
2022-10-23T23:55:12.010Z,95525.97
2022-10-23T23:57:38.630Z,95535.75
